createdAt,value
2023-04-07T00:00:28.548Z,96.01
2023-04-07T00:02:01.384Z,96.62
2023-04-07T00:03:34.437Z,96.92
2023-04-07T00:05:07.537Z,96.86
2023-04-07T00:06:40.913Z,97.35
2023-04-07T00:08:13.521Z,97.26
2023-04-07T00:09:46.323Z,98.33
2023-04-07T00:11:18.968Z,98.27
2023-04-07T00:12:51.720Z,98.87
2023-04-07T00:14:24.322Z,99.23
2023-04-07T00:15:57.089Z,99.84
2023-04-07T00:17:29.893Z,99.99
2023-04-07T00:19:02.556Z,100.00
2023-04-07T00:20:35.044Z,100.00
2023-04-07T00:22:07.893Z,100.00
2023-04-07T00:23:40.710Z,100.00
2023-04-07T00:25:13.282Z,100.00
2023-04-07T00:26:46.024Z,100.00
2023-04-07T00:28:18.865Z,98.47
2023-04-07T00:29:51.711Z,97.14
2023-04-07T00:31:24.459Z,100.00
2023-04-07T00:32:57.483Z,100.00
2023-04-07T00:34:30.762Z,100.00
2023-04-07T00:36:03.685Z,100.00
2023-04-07T00:37:36.664Z,100.00
2023-04-07T00:39:09.403Z,100.00
2023-04-07T00:40:42.190Z,100.00
2023-04-07T00:42:14.912Z,100.00
2023-04-07T00:43:47.680Z,100.00
2023-04-07T00:45:21.092Z,100.00
2023-04-07T00:46:54.092Z,100.00
2023-04-07T00:48:27.106Z,100.00
2023-04-07T00:49:59.920Z,100.00
2023-04-07T00:51:32.799Z,100.00
2023-04-07T00:53:06.156Z,100.00
2023-04-07T00:54:39.790Z,100.00
2023-04-07T00:56:13.614Z,100.00
2023-04-07T00:57:47.028Z,100.00
2023-04-07T00:59:21.181Z,100.00
2023-04-07T01:01:13.860Z,100.00
2023-04-07T01:02:58.140Z,100.00
2023-04-07T01:04:31.248Z,100.00
2023-04-07T01:06:07.064Z,100.00
2023-04-07T01:07:44.584Z,100.00
2023-04-07T01:09:23.514Z,100.00
2023-04-07T01:10:59.534Z,100.00
2023-04-07T01:12:36.732Z,100.00
2023-04-07T01:14:11.550Z,100.00
2023-04-07T01:15:53.103Z,100.00
2023-04-07T01:17:28.993Z,100.00
2023-04-07T01:19:32.606Z,100.00
2023-04-07T01:21:15.034Z,100.00
2023-04-07T01:22:52.091Z,100.00
2023-04-07T01:24:30.341Z,100.00
2023-04-07T01:26:03.015Z,100.00
2023-04-07T01:27:43.225Z,100.00
2023-04-07T01:29:34.341Z,100.00
2023-04-07T01:31:08.011Z,100.00
2023-04-07T01:32:42.041Z,100.00
2023-04-07T01:34:15.802Z,100.00
2023-04-07T01:35:50.460Z,99.68
2023-04-07T01:37:23.520Z,99.71
2023-04-07T01:38:57.023Z,99.73
2023-04-07T01:40:30.802Z,100.00
2023-04-07T01:42:05.807Z,99.81
2023-04-07T01:43:40.992Z,100.00
2023-04-07T01:45:16.600Z,100.00
2023-04-07T01:46:51.434Z,100.00
2023-04-07T01:48:24.508Z,100.00
2023-04-07T01:50:02.086Z,100.00
2023-04-07T01:51:36.197Z,100.00
2023-04-07T01:53:08.936Z,100.00
2023-04-07T01:54:42.196Z,100.00
2023-04-07T01:56:15.756Z,100.00
2023-04-07T01:57:53.603Z,100.00
2023-04-07T01:59:26.407Z,100.00
2023-04-07T02:01:00.472Z,100.00
2023-04-07T02:02:37.026Z,100.00
2023-04-07T02:04:17.227Z,100.00
2023-04-07T02:05:52.721Z,100.00
2023-04-07T02:07:32.926Z,100.00
2023-04-07T02:09:08.236Z,100.00
2023-04-07T02:10:42.261Z,100.00
2023-04-07T02:12:16.318Z,100.00
2023-04-07T02:14:02.180Z,100.00
2023-04-07T02:15:58.504Z,100.00
2023-04-07T02:17:35.145Z,100.00
2023-04-07T02:19:08.500Z,100.00
2023-04-07T02:20:42.905Z,100.00
2023-04-07T02:22:17.721Z,100.00
2023-04-07T02:23:50.959Z,100.00
2023-04-07T02:25:24.014Z,100.00
2023-04-07T02:26:57.661Z,100.00
2023-04-07T02:28:30.952Z,100.00
2023-04-07T02:30:03.745Z,100.00
2023-04-07T02:31:36.668Z,100.00
2023-04-07T02:33:09.432Z,100.00
2023-04-07T02:34:42.438Z,100.00
2023-04-07T02:36:14.988Z,100.00
2023-04-07T02:37:48.167Z,100.00
2023-04-07T02:39:20.937Z,100.00
2023-04-07T02:40:53.966Z,100.00
2023-04-07T02:42:27.274Z,100.00
2023-04-07T02:44:01.349Z,100.00
2023-04-07T02:45:33.975Z,100.00
2023-04-07T02:47:06.875Z,100.00
2023-04-07T02:48:39.478Z,100.00
2023-04-07T02:50:12.273Z,100.00
2023-04-07T02:51:47.203Z,100.00
2023-04-07T02:53:23.380Z,100.00
2023-04-07T02:54:56.405Z,100.00
2023-04-07T02:56:33.118Z,100.00
2023-04-07T02:58:05.840Z,100.00
2023-04-07T02:59:50.304Z,100.00
2023-04-07T03:01:23.024Z,100.00
2023-04-07T03:02:56.203Z,100.00
2023-04-07T03:04:29.146Z,100.00
2023-04-07T03:06:04.421Z,100.00
2023-04-07T03:07:37.925Z,100.00
2023-04-07T03:09:11.479Z,100.00
2023-04-07T03:10:45.174Z,100.00
2023-04-07T03:12:18.420Z,100.00
2023-04-07T03:13:51.727Z,100.00
2023-04-07T03:15:24.829Z,100.00
2023-04-07T03:16:57.944Z,100.00
2023-04-07T03:18:31.285Z,100.00
2023-04-07T03:20:07.183Z,100.00
2023-04-07T03:21:42.842Z,100.00
2023-04-07T03:23:15.770Z,100.00
2023-04-07T03:24:48.751Z,100.00
2023-04-07T03:26:22.149Z,100.00
2023-04-07T03:27:56.411Z,100.00
2023-04-07T03:29:30.960Z,100.00
2023-04-07T03:31:04.080Z,100.00
2023-04-07T03:32:37.026Z,100.00
2023-04-07T03:34:09.733Z,100.00
2023-04-07T03:35:43.041Z,100.00
2023-04-07T03:37:17.366Z,100.00
2023-04-07T03:38:51.650Z,100.00
2023-04-07T03:40:24.828Z,100.00
2023-04-07T03:41:58.317Z,100.00
2023-04-07T03:43:33.772Z,100.00
2023-04-07T03:45:07.724Z,100.00
2023-04-07T03:46:43.105Z,100.00
2023-04-07T03:48:16.004Z,100.00
2023-04-07T03:50:00.183Z,100.00
2023-04-07T03:51:34.439Z,100.00
2023-04-07T03:53:10.040Z,100.00
2023-04-07T03:54:42.784Z,100.00
2023-04-07T03:56:15.477Z,100.00
2023-04-07T03:57:51.081Z,100.00
2023-04-07T03:59:24.361Z,100.00
2023-04-07T04:01:03.498Z,100.00
2023-04-07T04:02:36.995Z,100.00
2023-04-07T04:04:10.154Z,100.00
2023-04-07T04:05:43.255Z,100.00
2023-04-07T04:07:21.520Z,100.00
2023-04-07T04:08:56.871Z,100.00
2023-04-07T04:10:31.382Z,100.00
2023-04-07T04:12:04.516Z,100.00
2023-04-07T04:13:38.781Z,100.00
2023-04-07T04:15:12.483Z,100.00
2023-04-07T04:16:45.802Z,100.00
2023-04-07T04:18:32.773Z,100.00
2023-04-07T04:20:05.802Z,100.00
2023-04-07T04:21:47.367Z,100.00
2023-04-07T04:23:21.568Z,100.00
2023-04-07T04:24:57.938Z,100.00
2023-04-07T04:26:32.968Z,100.00
2023-04-07T04:28:12.478Z,100.00
2023-04-07T04:29:47.237Z,100.00
2023-04-07T04:31:22.250Z,100.00
2023-04-07T04:32:55.942Z,100.00
2023-04-07T04:34:37.610Z,100.00
2023-04-07T04:36:10.188Z,100.00
2023-04-07T04:37:42.961Z,100.00
2023-04-07T04:39:17.259Z,100.00
2023-04-07T04:40:51.185Z,100.00
2023-04-07T04:42:28.636Z,100.00
2023-04-07T04:44:02.915Z,100.00
2023-04-07T04:45:37.092Z,100.00
2023-04-07T04:47:10.977Z,100.00
2023-04-07T04:48:45.950Z,100.00
2023-04-07T04:50:19.239Z,100.00
2023-04-07T04:51:52.800Z,100.00
2023-04-07T04:53:25.847Z,100.00
2023-04-07T04:55:03.095Z,100.00
2023-04-07T04:56:36.136Z,100.00
2023-04-07T04:58:09.508Z,100.00
2023-04-07T04:59:51.836Z,100.00
2023-04-07T05:01:24.800Z,100.00
2023-04-07T05:03:04.160Z,100.00
2023-04-07T05:04:41.550Z,100.00
2023-04-07T05:06:24.983Z,100.00
2023-04-07T05:08:00.180Z,100.00
2023-04-07T05:09:38.868Z,100.00
2023-04-07T05:11:12.255Z,100.00
2023-04-07T05:12:45.794Z,100.00
2023-04-07T05:14:18.470Z,100.00
2023-04-07T05:15:58.233Z,100.00
2023-04-07T05:17:31.267Z,100.00
2023-04-07T05:19:06.629Z,100.00
2023-04-07T05:20:39.600Z,100.00
2023-04-07T05:22:14.022Z,100.00
2023-04-07T05:23:51.494Z,100.00
2023-04-07T05:25:27.231Z,100.00
2023-04-07T05:27:04.064Z,100.00
2023-04-07T05:28:37.623Z,100.00
2023-04-07T05:30:16.004Z,100.00
2023-04-07T05:31:48.829Z,100.00
2023-04-07T05:33:23.360Z,100.00
2023-04-07T05:34:58.911Z,100.00
2023-04-07T05:36:36.327Z,100.00
2023-04-07T05:38:09.066Z,100.00
2023-04-07T05:41:17.478Z,100.00
2023-04-07T05:42:50.060Z,100.00
2023-04-07T05:44:22.822Z,100.00
2023-04-07T05:45:55.521Z,100.00
2023-04-07T05:47:29.278Z,100.00
2023-04-07T05:49:13.289Z,100.00
2023-04-07T05:50:56.310Z,98.49
2023-04-07T05:52:29.013Z,97.52
2023-04-07T05:54:11.799Z,96.04
2023-04-07T05:55:44.670Z,94.96
2023-04-07T05:57:40.767Z,94.98
2023-04-07T05:59:13.645Z,95.28
2023-04-07T06:00:46.424Z,95.04
2023-04-07T06:02:22.898Z,95.00
2023-04-07T06:03:57.465Z,94.92
2023-04-07T06:05:32.070Z,95.14
2023-04-07T06:07:04.794Z,95.09
2023-04-07T06:08:37.497Z,94.87
2023-04-07T06:10:10.389Z,94.44
2023-04-07T06:11:43.349Z,93.45
2023-04-07T06:13:16.128Z,93.75
2023-04-07T06:14:53.313Z,93.18
2023-04-07T06:16:27.992Z,93.38
2023-04-07T06:18:00.917Z,92.66
2023-04-07T06:19:33.509Z,93.01
2023-04-07T06:21:06.649Z,93.14
2023-04-07T06:22:39.472Z,93.00
2023-04-07T06:24:13.641Z,92.42
2023-04-07T06:25:46.372Z,92.46
2023-04-07T06:27:19.345Z,92.52
2023-04-07T06:28:53.962Z,91.95
2023-04-07T06:30:26.803Z,92.25
2023-04-07T06:31:59.664Z,92.76
2023-04-07T06:33:32.484Z,92.87
2023-04-07T06:35:05.563Z,92.12
2023-04-07T06:36:38.604Z,91.78
2023-04-07T06:38:12.606Z,90.30
2023-04-07T06:39:45.771Z,90.08
2023-04-07T06:41:18.330Z,90.69
2023-04-07T06:42:51.985Z,90.95
2023-04-07T06:44:33.443Z,91.25
2023-04-07T06:46:06.531Z,90.36
2023-04-07T06:47:39.299Z,90.06
2023-04-07T06:49:12.450Z,89.80
2023-04-07T06:50:49.733Z,89.18
2023-04-07T06:52:22.578Z,89.75
2023-04-07T06:53:55.665Z,90.87
2023-04-07T06:55:28.483Z,92.08
2023-04-07T06:57:01.818Z,93.22
2023-04-07T06:58:34.669Z,93.28
2023-04-07T07:00:08.269Z,93.28
2023-04-07T07:01:41.125Z,94.27
2023-04-07T07:03:13.980Z,93.64
2023-04-07T07:04:49.059Z,93.71
2023-04-07T07:06:21.942Z,92.55
2023-04-07T07:07:54.741Z,91.50
2023-04-07T07:09:27.895Z,90.15
2023-04-07T07:11:00.960Z,88.71
2023-04-07T07:12:33.762Z,87.81
2023-04-07T07:14:06.589Z,87.54
2023-04-07T07:15:39.222Z,86.74
2023-04-07T07:17:11.806Z,86.09
2023-04-07T07:18:44.696Z,86.26
2023-04-07T07:20:17.496Z,85.20
2023-04-07T07:21:50.349Z,84.37
2023-04-07T07:23:23.001Z,83.58
2023-04-07T07:24:55.867Z,81.93
2023-04-07T07:26:28.800Z,80.95
2023-04-07T07:28:01.710Z,80.46
2023-04-07T07:29:34.449Z,79.58
2023-04-07T07:31:13.481Z,79.96
2023-04-07T07:32:46.296Z,78.34
2023-04-07T07:34:18.882Z,76.92
2023-04-07T07:35:52.192Z,74.48
2023-04-07T07:37:24.961Z,73.94
2023-04-07T07:38:57.671Z,73.45
2023-04-07T07:40:30.716Z,73.18
2023-04-07T07:42:03.391Z,72.64
2023-04-07T07:43:37.360Z,72.74
2023-04-07T07:45:10.818Z,73.39
2023-04-07T07:46:43.442Z,72.38
2023-04-07T07:48:16.111Z,71.52
2023-04-07T07:49:48.878Z,71.63
2023-04-07T07:51:22.028Z,72.12
2023-04-07T07:52:54.605Z,72.31
2023-04-07T07:54:27.379Z,72.24
2023-04-07T07:56:00.400Z,71.40
2023-04-07T07:57:33.170Z,71.21
2023-04-07T07:59:08.644Z,69.67
2023-04-07T08:00:41.656Z,69.27
2023-04-07T08:02:14.487Z,68.56
2023-04-07T08:03:48.215Z,67.72
2023-04-07T08:05:21.230Z,66.97
2023-04-07T08:06:53.929Z,65.74
2023-04-07T08:08:26.602Z,64.85
2023-04-07T08:09:59.348Z,64.19
2023-04-07T08:11:31.955Z,63.88
2023-04-07T08:13:05.525Z,62.27
2023-04-07T08:14:38.458Z,60.03
2023-04-07T08:16:11.741Z,59.63
2023-04-07T08:17:44.583Z,58.59
2023-04-07T08:19:17.333Z,57.64
2023-04-07T08:20:50.196Z,56.55
2023-04-07T08:22:23.279Z,55.32
2023-04-07T08:23:56.629Z,54.55
2023-04-07T08:25:30.072Z,53.91
2023-04-07T08:27:02.973Z,53.57
2023-04-07T08:28:35.837Z,53.58
2023-04-07T08:30:08.764Z,53.77
2023-04-07T08:31:41.764Z,53.16
2023-04-07T08:33:14.623Z,53.36
2023-04-07T08:34:47.443Z,52.99
2023-04-07T08:36:23.286Z,53.02
2023-04-07T08:37:56.042Z,52.93
2023-04-07T08:39:29.194Z,52.50
2023-04-07T08:41:06.135Z,52.23
2023-04-07T08:42:41.482Z,51.96
2023-04-07T08:44:15.588Z,51.67
2023-04-07T08:45:48.928Z,51.07
2023-04-07T08:47:23.234Z,51.36
2023-04-07T08:48:57.137Z,51.18
2023-04-07T08:50:29.789Z,50.94
2023-04-07T08:52:09.114Z,50.60
2023-04-07T08:53:46.295Z,50.89
2023-04-07T08:55:19.625Z,51.23
2023-04-07T08:56:53.135Z,50.77
2023-04-07T08:58:26.672Z,50.56
2023-04-07T09:00:08.849Z,50.37
2023-04-07T09:01:42.149Z,50.07
2023-04-07T09:03:16.771Z,50.20
2023-04-07T09:04:49.559Z,50.22
2023-04-07T09:06:22.214Z,49.67
2023-04-07T09:07:54.984Z,49.80
2023-04-07T09:09:27.871Z,49.57
2023-04-07T09:11:00.784Z,48.82
2023-04-07T09:12:34.272Z,48.92
2023-04-07T09:14:07.994Z,48.66
2023-04-07T09:15:41.857Z,48.86
2023-04-07T09:17:14.756Z,48.37
2023-04-07T09:18:47.813Z,48.05
2023-04-07T09:20:20.654Z,48.08
2023-04-07T09:21:53.795Z,47.50
2023-04-07T09:23:30.873Z,47.43
2023-04-07T09:25:17.458Z,47.39
2023-04-07T09:26:50.297Z,47.21
2023-04-07T09:28:23.301Z,47.65
2023-04-07T09:30:11.812Z,47.79
2023-04-07T09:31:44.712Z,47.61
2023-04-07T09:33:27.151Z,47.13
2023-04-07T09:35:00.654Z,47.29
2023-04-07T09:36:41.655Z,47.21
2023-04-07T09:38:14.613Z,47.09
2023-04-07T09:39:51.054Z,47.51
2023-04-07T09:41:24.123Z,47.71
2023-04-07T09:42:58.749Z,47.44
2023-04-07T09:44:39.960Z,47.19
2023-04-07T09:46:13.389Z,47.50
2023-04-07T09:47:46.673Z,47.43
2023-04-07T09:49:20.685Z,47.26
2023-04-07T09:51:05.302Z,47.21
2023-04-07T09:52:54.694Z,47.70
2023-04-07T09:54:33.840Z,47.54
2023-04-07T09:56:06.632Z,47.08
2023-04-07T09:57:39.752Z,47.09
2023-04-07T09:59:12.757Z,46.73
2023-04-07T10:00:46.043Z,46.89
2023-04-07T10:02:19.313Z,46.56
2023-04-07T10:03:53.202Z,46.46
2023-04-07T10:05:26.017Z,46.22
2023-04-07T10:07:00.335Z,45.85
2023-04-07T10:08:37.808Z,46.15
2023-04-07T10:10:11.089Z,45.66
2023-04-07T10:11:44.029Z,45.91
2023-04-07T10:13:16.930Z,46.18
2023-04-07T10:14:50.776Z,46.28
2023-04-07T10:16:23.844Z,46.68
2023-04-07T10:17:57.340Z,46.26
2023-04-07T10:19:34.135Z,46.00
2023-04-07T10:21:08.488Z,46.24
2023-04-07T10:22:42.908Z,45.86
2023-04-07T10:24:25.629Z,45.69
2023-04-07T10:25:59.836Z,45.91
2023-04-07T10:27:50.767Z,45.68
2023-04-07T10:29:24.424Z,45.88
2023-04-07T10:30:57.447Z,46.15
2023-04-07T10:32:30.479Z,46.02
2023-04-07T10:34:04.201Z,45.94
2023-04-07T10:35:57.472Z,45.75
2023-04-07T10:37:33.756Z,45.33
2023-04-07T10:39:09.814Z,45.22
2023-04-07T10:40:43.416Z,45.11
2023-04-07T10:42:34.618Z,44.37
2023-04-07T10:44:08.422Z,44.31
2023-04-07T10:45:50.601Z,44.09
2023-04-07T10:47:23.476Z,44.00
2023-04-07T10:49:26.285Z,44.03
2023-04-07T10:51:05.356Z,44.12
2023-04-07T10:52:39.014Z,44.07
2023-04-07T10:54:22.592Z,43.85
2023-04-07T10:55:56.985Z,43.79
2023-04-07T10:57:30.477Z,43.89
2023-04-07T10:59:15.707Z,43.60
2023-04-07T11:01:00.830Z,43.65
2023-04-07T11:02:34.204Z,43.30
2023-04-07T11:04:09.113Z,42.86
2023-04-07T11:05:42.610Z,43.35
2023-04-07T11:07:16.638Z,43.44
2023-04-07T11:08:50.987Z,43.53
2023-04-07T11:10:23.783Z,43.77
2023-04-07T11:11:56.828Z,44.06
2023-04-07T11:13:29.577Z,43.85
2023-04-07T11:15:17.027Z,44.01
2023-04-07T11:16:50.064Z,44.09
2023-04-07T11:18:23.997Z,44.15
2023-04-07T11:19:57.856Z,43.92
2023-04-07T11:21:30.970Z,43.71
2023-04-07T11:23:03.874Z,43.86
2023-04-07T11:24:39.519Z,44.08
2023-04-07T11:26:14.086Z,43.90
2023-04-07T11:27:48.096Z,43.73
2023-04-07T11:29:28.011Z,43.78
2023-04-07T11:31:00.843Z,43.94
2023-04-07T11:32:33.697Z,44.12
2023-04-07T11:34:06.515Z,43.77
2023-04-07T11:35:39.355Z,43.67
2023-04-07T11:37:29.160Z,43.69
2023-04-07T11:39:05.454Z,43.89
2023-04-07T11:41:35.972Z,43.79
2023-04-07T11:43:28.057Z,43.24
2023-04-07T11:45:01.249Z,43.72
2023-04-07T11:46:35.688Z,43.64
2023-04-07T11:48:27.642Z,43.50
2023-04-07T11:50:00.293Z,43.14
2023-04-07T11:51:33.306Z,42.81
2023-04-07T11:53:06.232Z,42.90
2023-04-07T11:54:42.975Z,43.05
2023-04-07T11:56:19.608Z,42.60
2023-04-07T11:57:52.629Z,42.12
2023-04-07T11:59:26.006Z,42.35
2023-04-07T12:01:07.313Z,42.01
2023-04-07T12:02:40.613Z,42.26
2023-04-07T12:04:15.414Z,42.47
2023-04-07T12:05:48.269Z,42.17
2023-04-07T12:07:21.416Z,42.11
2023-04-07T12:08:54.309Z,42.06
2023-04-07T12:10:27.182Z,41.47
2023-04-07T12:11:59.952Z,41.55
2023-04-07T12:13:33.080Z,41.47
2023-04-07T12:15:06.377Z,41.43
2023-04-07T12:16:39.580Z,41.35
2023-04-07T12:18:15.871Z,41.64
2023-04-07T12:19:48.820Z,41.76
2023-04-07T12:21:21.621Z,41.80
2023-04-07T12:22:54.390Z,41.55
2023-04-07T12:24:27.607Z,41.58
2023-04-07T12:26:01.693Z,41.62
2023-04-07T12:27:42.861Z,41.38
2023-04-07T12:29:20.575Z,41.27
2023-04-07T12:30:53.413Z,41.26
2023-04-07T12:32:26.905Z,41.11
2023-04-07T12:33:59.704Z,41.58
2023-04-07T12:35:32.680Z,41.38
2023-04-07T12:37:05.252Z,41.24
2023-04-07T12:38:38.162Z,41.40
2023-04-07T12:40:11.628Z,40.97
2023-04-07T12:41:49.439Z,41.00
2023-04-07T12:43:22.036Z,41.16
2023-04-07T12:44:54.855Z,41.26
2023-04-07T12:46:27.771Z,41.60
2023-04-07T12:48:00.858Z,41.65
2023-04-07T12:49:33.703Z,41.77
2023-04-07T12:51:06.867Z,41.79
2023-04-07T12:52:39.441Z,41.53
2023-04-07T12:54:11.995Z,41.58
2023-04-07T12:55:44.583Z,41.64
2023-04-07T12:57:17.455Z,41.88
2023-04-07T12:58:50.099Z,41.70
2023-04-07T13:00:22.875Z,41.51
2023-04-07T13:01:55.696Z,41.18
2023-04-07T13:03:29.363Z,41.14
2023-04-07T13:05:02.279Z,41.02
2023-04-07T13:06:35.782Z,41.02
2023-04-07T13:08:08.439Z,41.31
2023-04-07T13:09:44.339Z,41.35
2023-04-07T13:11:16.970Z,41.20
2023-04-07T13:12:49.613Z,41.01
2023-04-07T13:14:22.308Z,41.02
2023-04-07T13:15:57.479Z,40.90
2023-04-07T13:17:30.597Z,40.85
2023-04-07T13:19:04.373Z,41.01
2023-04-07T13:20:38.109Z,40.82
2023-04-07T13:22:11.049Z,41.23
2023-04-07T13:23:53.431Z,41.21
2023-04-07T13:25:26.207Z,41.02
2023-04-07T13:26:59.822Z,40.88
2023-04-07T13:28:32.700Z,40.85
2023-04-07T13:30:05.465Z,40.74
2023-04-07T13:31:38.058Z,40.46
2023-04-07T13:33:10.703Z,40.42
2023-04-07T13:34:44.379Z,40.38
2023-04-07T13:36:17.067Z,40.58
2023-04-07T13:37:49.804Z,40.27
2023-04-07T13:39:22.373Z,40.20
2023-04-07T13:40:55.340Z,40.39
2023-04-07T13:42:28.124Z,40.38
2023-04-07T13:44:01.592Z,40.02
2023-04-07T13:45:34.219Z,39.92
2023-04-07T13:47:07.887Z,39.84
2023-04-07T13:48:40.667Z,39.84
2023-04-07T13:50:13.409Z,39.59
2023-04-07T13:51:46.062Z,39.54
2023-04-07T13:53:19.381Z,39.31
2023-04-07T13:54:52.074Z,38.75
2023-04-07T13:56:24.939Z,38.63
2023-04-07T13:57:57.475Z,38.33
2023-04-07T13:59:30.452Z,38.34
2023-04-07T14:01:05.922Z,38.09
2023-04-07T14:02:38.842Z,38.13
2023-04-07T14:04:11.665Z,38.02
2023-04-07T14:05:44.828Z,37.61
2023-04-07T14:07:17.529Z,37.28
2023-04-07T14:08:50.641Z,37.12
2023-04-07T14:10:23.277Z,36.89
2023-04-07T14:11:56.239Z,36.70
2023-04-07T14:13:29.016Z,36.70
2023-04-07T14:15:01.766Z,36.47
2023-04-07T14:16:35.129Z,36.58
2023-04-07T14:18:08.412Z,36.29
2023-04-07T14:19:41.090Z,36.00
2023-04-07T14:21:13.745Z,35.96
2023-04-07T14:22:46.481Z,36.20
2023-04-07T14:24:19.757Z,36.08
2023-04-07T14:25:52.501Z,36.04
2023-04-07T14:27:25.314Z,35.57
2023-04-07T14:28:58.375Z,35.13
2023-04-07T14:30:31.570Z,35.00
2023-04-07T14:32:04.348Z,35.08
2023-04-07T14:33:37.400Z,34.96
2023-04-07T14:35:10.484Z,35.12
2023-04-07T14:36:53.781Z,35.03
2023-04-07T14:38:26.530Z,35.26
2023-04-07T14:40:02.814Z,35.28
2023-04-07T14:41:36.155Z,35.19
2023-04-07T14:43:10.716Z,35.17
2023-04-07T14:44:43.367Z,35.38
2023-04-07T14:46:16.016Z,35.42
2023-04-07T14:47:48.584Z,35.69
2023-04-07T14:49:22.047Z,35.59
2023-04-07T14:51:08.251Z,36.05
2023-04-07T14:52:42.090Z,36.32
2023-04-07T14:54:14.637Z,36.29
2023-04-07T14:55:47.859Z,36.39
2023-04-07T14:57:20.656Z,36.41
2023-04-07T14:58:53.457Z,36.28
2023-04-07T15:00:27.529Z,36.43
2023-04-07T15:02:00.538Z,36.44
2023-04-07T15:03:35.215Z,36.26
2023-04-07T15:05:08.242Z,36.76
2023-04-07T15:06:42.106Z,36.66
2023-04-07T15:08:15.122Z,36.79
2023-04-07T15:09:48.177Z,36.65
2023-04-07T15:11:21.906Z,37.06
2023-04-07T15:12:54.596Z,37.15
2023-04-07T15:14:27.512Z,37.54
2023-04-07T15:16:10.566Z,37.34
2023-04-07T15:17:44.904Z,37.45
2023-04-07T15:19:18.074Z,37.43
2023-04-07T15:20:50.850Z,37.88
2023-04-07T15:22:23.443Z,37.76
2023-04-07T15:23:56.151Z,37.61
2023-04-07T15:25:29.019Z,37.95
2023-04-07T15:27:02.069Z,38.21
2023-04-07T15:28:34.728Z,37.92
2023-04-07T15:30:07.797Z,38.04
2023-04-07T15:31:40.620Z,38.01
2023-04-07T15:33:13.801Z,38.40
2023-04-07T15:34:47.702Z,38.42
2023-04-07T15:36:20.568Z,38.39
2023-04-07T15:37:53.590Z,38.69
2023-04-07T15:39:26.585Z,38.41
2023-04-07T15:40:59.241Z,38.51
2023-04-07T15:42:33.798Z,39.14
2023-04-07T15:44:06.565Z,38.86
2023-04-07T15:45:43.423Z,38.80
2023-04-07T15:47:16.165Z,39.13
2023-04-07T15:48:48.826Z,38.85
2023-04-07T15:50:21.869Z,39.15
2023-04-07T15:51:55.197Z,39.21
2023-04-07T15:53:27.992Z,39.07
2023-04-07T15:55:00.715Z,39.33
2023-04-07T15:56:33.688Z,39.52
2023-04-07T15:58:08.362Z,39.48
2023-04-07T15:59:41.145Z,39.81
2023-04-07T16:01:13.902Z,39.63
2023-04-07T16:02:46.890Z,39.59
2023-04-07T16:04:20.073Z,40.30
2023-04-07T16:05:52.962Z,39.98
2023-04-07T16:07:26.178Z,40.14
2023-04-07T16:08:58.819Z,40.43
2023-04-07T16:10:31.733Z,40.39
2023-04-07T16:12:04.464Z,40.34
2023-04-07T16:13:37.127Z,40.52
2023-04-07T16:15:11.487Z,40.34
2023-04-07T16:16:44.952Z,40.36
2023-04-07T16:18:17.705Z,40.34
2023-04-07T16:19:50.464Z,40.89
2023-04-07T16:21:23.225Z,40.50
2023-04-07T16:22:56.330Z,41.16
2023-04-07T16:24:29.827Z,40.73
2023-04-07T16:26:02.446Z,40.98
2023-04-07T16:27:35.133Z,41.05
2023-04-07T16:29:08.013Z,41.35
2023-04-07T16:30:40.741Z,41.12
2023-04-07T16:32:14.059Z,41.25
2023-04-07T16:33:47.252Z,41.28
2023-04-07T16:35:20.468Z,41.39
2023-04-07T16:36:53.091Z,41.44
2023-04-07T16:38:27.605Z,41.75
2023-04-07T16:40:00.315Z,41.12
2023-04-07T16:41:33.329Z,41.79
2023-04-07T16:43:06.371Z,41.68
2023-04-07T16:44:39.065Z,41.88
2023-04-07T16:46:11.716Z,41.80
2023-04-07T16:47:44.867Z,41.26
2023-04-07T16:49:17.488Z,41.75
2023-04-07T16:50:49.988Z,41.64
2023-04-07T16:52:22.934Z,41.56
2023-04-07T16:53:56.085Z,41.50
2023-04-07T16:55:28.733Z,41.76
2023-04-07T16:57:01.437Z,42.15
2023-04-07T16:58:33.968Z,41.58
2023-04-07T17:00:07.277Z,41.85
2023-04-07T17:01:42.165Z,42.03
2023-04-07T17:03:15.719Z,42.41
2023-04-07T17:04:48.550Z,41.62
2023-04-07T17:06:21.623Z,41.97
2023-04-07T17:07:56.126Z,41.82
2023-04-07T17:09:29.745Z,42.17
2023-04-07T17:11:06.069Z,42.15
2023-04-07T17:12:39.073Z,41.88
2023-04-07T17:14:11.685Z,42.18
2023-04-07T17:15:44.425Z,41.99
2023-04-07T17:17:17.216Z,42.34
2023-04-07T17:18:50.468Z,42.52
2023-04-07T17:20:23.834Z,42.50
2023-04-07T17:21:56.664Z,42.42
2023-04-07T17:23:32.298Z,42.44
2023-04-07T17:25:05.675Z,42.80
2023-04-07T17:26:38.302Z,42.49
2023-04-07T17:28:11.031Z,42.74
2023-04-07T17:29:43.858Z,43.01
2023-04-07T17:31:16.780Z,43.10
2023-04-07T17:32:50.974Z,42.80
2023-04-07T17:34:23.670Z,42.41
2023-04-07T17:35:56.561Z,42.94
2023-04-07T17:37:29.411Z,42.68
2023-04-07T17:39:03.190Z,42.62
2023-04-07T17:40:35.752Z,42.72
2023-04-07T17:42:11.380Z,42.65
2023-04-07T17:43:44.272Z,43.23
2023-04-07T17:45:17.949Z,42.80
2023-04-07T17:46:50.911Z,43.28
2023-04-07T17:48:23.892Z,42.92
2023-04-07T17:49:57.151Z,43.21
2023-04-07T17:51:29.892Z,43.06
2023-04-07T17:53:02.729Z,42.87
2023-04-07T17:54:35.384Z,42.81
2023-04-07T17:56:08.284Z,43.15
2023-04-07T17:57:42.133Z,43.16
2023-04-07T17:59:15.414Z,43.07
2023-04-07T18:00:48.506Z,43.00
2023-04-07T18:02:21.879Z,43.24
2023-04-07T18:03:55.260Z,43.49
2023-04-07T18:05:31.266Z,43.40
2023-04-07T18:07:03.949Z,43.21
2023-04-07T18:08:36.984Z,43.66
2023-04-07T18:10:10.403Z,43.49
2023-04-07T18:11:43.495Z,43.34
2023-04-07T18:13:16.237Z,43.33
2023-04-07T18:14:49.146Z,43.91
2023-04-07T18:16:22.528Z,43.59
2023-04-07T18:17:55.676Z,43.51
2023-04-07T18:19:30.274Z,43.92
2023-04-07T18:21:03.606Z,43.83
2023-04-07T18:22:37.590Z,43.49
2023-04-07T18:24:10.205Z,43.70
2023-04-07T18:25:42.947Z,44.09
2023-04-07T18:27:16.400Z,44.15
2023-04-07T18:28:49.695Z,44.09
2023-04-07T18:30:22.716Z,44.19
2023-04-07T18:31:55.528Z,44.48
2023-04-07T18:33:33.276Z,44.53
2023-04-07T18:35:06.751Z,44.44
2023-04-07T18:36:42.766Z,44.49
2023-04-07T18:38:15.650Z,44.10
2023-04-07T18:39:48.617Z,43.91
2023-04-07T18:41:21.485Z,44.05
2023-04-07T18:42:55.733Z,43.96
2023-04-07T18:44:28.687Z,43.92
2023-04-07T18:46:01.811Z,43.88
2023-04-07T18:47:34.420Z,43.75
2023-04-07T18:49:07.099Z,43.22
2023-04-07T18:50:39.822Z,43.19
2023-04-07T18:52:12.941Z,42.91
2023-04-07T18:53:45.757Z,43.17
2023-04-07T18:55:18.394Z,42.88
2023-04-07T18:56:51.184Z,43.11
2023-04-07T18:58:23.867Z,43.02
2023-04-07T18:59:57.174Z,43.48
2023-04-07T19:01:29.953Z,43.06
2023-04-07T19:03:03.010Z,43.83
2023-04-07T19:04:36.128Z,43.90
2023-04-07T19:06:08.915Z,43.05
2023-04-07T19:07:41.904Z,43.54
2023-04-07T19:09:14.561Z,43.04
2023-04-07T19:10:48.815Z,42.90
2023-04-07T19:12:22.670Z,43.35
2023-04-07T19:13:56.649Z,43.21
2023-04-07T19:15:33.008Z,43.00
2023-04-07T19:17:06.487Z,42.90
2023-04-07T19:18:39.093Z,42.55
2023-04-07T19:20:11.896Z,42.74
2023-04-07T19:21:44.470Z,42.16
2023-04-07T19:23:17.547Z,42.33
2023-04-07T19:24:50.120Z,42.56
2023-04-07T19:26:23.282Z,42.28
2023-04-07T19:27:56.074Z,42.31
2023-04-07T19:29:29.768Z,42.00
2023-04-07T19:31:02.721Z,42.08
2023-04-07T19:32:35.399Z,41.75
2023-04-07T19:34:08.046Z,41.67
2023-04-07T19:35:41.007Z,41.62
2023-04-07T19:37:13.824Z,41.05
2023-04-07T19:38:46.588Z,40.78
2023-04-07T19:40:19.181Z,40.87
2023-04-07T19:41:51.997Z,40.37
2023-04-07T19:43:24.707Z,40.05
2023-04-07T19:45:00.433Z,39.96
2023-04-07T19:46:36.740Z,40.19
2023-04-07T19:48:09.624Z,40.02
2023-04-07T19:49:42.530Z,39.59
2023-04-07T19:51:15.709Z,39.67
2023-04-07T19:52:48.436Z,38.84
2023-04-07T19:54:21.526Z,38.80
2023-04-07T19:55:54.477Z,38.95
2023-04-07T19:57:28.107Z,38.44
2023-04-07T19:59:00.949Z,38.40
2023-04-07T20:00:34.943Z,37.86
2023-04-07T20:02:07.781Z,38.04
2023-04-07T20:03:43.274Z,38.01
2023-04-07T20:05:16.258Z,38.07
2023-04-07T20:06:49.059Z,37.86
2023-04-07T20:08:22.136Z,37.30